createdAt,value
2023-12-20T00:01:07.708Z,101679.50
2023-12-20T00:03:41.626Z,101676.25
2023-12-20T00:06:09.655Z,101677.69
2023-12-20T00:08:36.205Z,101663.16
2023-12-20T00:11:02.849Z,101664.63
2023-12-20T00:13:29.570Z,101660.97
2023-12-20T00:15:56.184Z,101659.75
2023-12-20T00:18:22.797Z,101659.97
2023-12-20T00:20:49.362Z,101657.53
2023-12-20T00:23:16.406Z,101659.75
2023-12-20T00:25:42.968Z,101666.72
2023-12-20T00:28:09.844Z,101650.81
2023-12-20T00:30:37.565Z,101652.47
2023-12-20T00:33:04.632Z,101652.47
2023-12-20T00:35:31.327Z,101657.22
2023-12-20T00:37:59.090Z,101660.28
2023-12-20T00:40:25.830Z,101662.09
2023-12-20T00:42:52.509Z,101666.78
2023-12-20T00:45:19.059Z,101660.06
2023-12-20T00:47:45.823Z,101663.56
2023-12-20T00:50:12.479Z,101654.97
2023-12-20T00:52:39.207Z,101659.06
2023-12-20T00:55:06.348Z,101654.16
2023-12-20T00:57:32.886Z,101655.00
2023-12-20T00:59:59.490Z,101668.06
2023-12-20T01:02:26.269Z,101658.06
2023-12-20T01:04:52.930Z,101658.47
2023-12-20T01:07:20.163Z,101653.56
2023-12-20T01:09:46.802Z,101646.81
2023-12-20T01:12:13.431Z,101648.06
2023-12-20T01:14:40.778Z,101643.78
2023-12-20T01:17:07.694Z,101638.69
2023-12-20T01:19:34.457Z,101643.78
2023-12-20T01:22:01.195Z,101640.13
2023-12-20T01:24:27.781Z,101646.66
2023-12-20T01:26:54.282Z,101659.91
2023-12-20T01:29:20.959Z,101658.28
2023-12-20T01:31:47.732Z,101668.47
2023-12-20T01:34:14.652Z,101663.59
2023-12-20T01:36:41.298Z,101667.66
2023-12-20T01:39:16.455Z,101664.38
2023-12-20T01:41:51.667Z,101669.91
2023-12-20T01:44:18.533Z,101668.88
2023-12-20T01:46:45.227Z,101661.31
2023-12-20T01:49:12.083Z,101654.38
2023-12-20T01:51:39.316Z,101646.63
2023-12-20T01:54:06.105Z,101649.06
2023-12-20T01:56:33.596Z,101655.41
2023-12-20T01:59:04.371Z,101659.28
2023-12-20T02:01:31.629Z,101646.22
2023-12-20T02:03:58.810Z,101651.31
2023-12-20T02:06:30.392Z,101652.97
2023-12-20T02:08:58.252Z,101659.47
2023-12-20T02:11:26.138Z,101651.50
2023-12-20T02:13:52.875Z,101649.69
2023-12-20T02:16:19.776Z,101646.03
2023-12-20T02:18:46.493Z,101648.47
2023-12-20T02:21:13.050Z,101639.47
2023-12-20T02:23:39.629Z,101638.22
2023-12-20T02:26:07.463Z,101641.50
2023-12-20T02:28:35.391Z,101643.75
2023-12-20T02:31:02.121Z,101641.69
2023-12-20T02:33:28.881Z,101639.84
2023-12-20T02:35:55.476Z,101631.69
2023-12-20T02:38:22.019Z,101635.38
2023-12-20T02:40:49.943Z,101638.81
2023-12-20T02:43:17.469Z,101632.09
2023-12-20T02:45:44.315Z,101632.72
2023-12-20T02:48:10.880Z,101623.28
2023-12-20T02:50:37.662Z,101618.81
2023-12-20T02:53:04.514Z,101620.03
2023-12-20T02:55:31.099Z,101619.19
2023-12-20T02:57:57.672Z,101618.19
2023-12-20T03:00:24.246Z,101608.19
2023-12-20T03:02:51.130Z,101615.13
2023-12-20T03:05:17.762Z,101611.88
2023-12-20T03:07:44.843Z,101605.31
2023-12-20T03:10:19.487Z,101616.56
2023-12-20T03:12:51.659Z,101614.91
2023-12-20T03:15:18.213Z,101611.44
2023-12-20T03:17:45.876Z,101603.47
2023-12-20T03:20:12.732Z,101602.00
2023-12-20T03:22:39.354Z,101599.97
2023-12-20T03:25:06.086Z,101595.28
2023-12-20T03:27:32.774Z,101589.19
2023-12-20T03:29:59.278Z,101588.34
2023-12-20T03:32:25.872Z,101577.31
2023-12-20T03:34:52.539Z,101581.00
2023-12-20T03:37:19.312Z,101599.34
2023-12-20T03:39:45.898Z,101595.03
2023-12-20T03:42:14.169Z,101598.50
2023-12-20T03:44:41.608Z,101595.63
2023-12-20T03:47:09.083Z,101594.56
2023-12-20T03:49:38.192Z,101587.59
2023-12-20T03:52:05.242Z,101599.03
2023-12-20T03:54:31.768Z,101594.13
2023-12-20T03:56:58.333Z,101596.41
2023-12-20T03:59:25.041Z,101586.97
2023-12-20T04:01:51.673Z,101585.97
2023-12-20T04:04:18.293Z,101595.38
2023-12-20T04:06:45.062Z,101595.16
2023-12-20T04:09:11.871Z,101593.09
2023-12-20T04:11:39.704Z,101596.13
2023-12-20T04:14:06.302Z,101591.63
2023-12-20T04:16:32.823Z,101587.50
2023-12-20T04:18:59.521Z,101581.38
2023-12-20T04:21:26.260Z,101579.50
2023-12-20T04:23:52.776Z,101582.56
2023-12-20T04:26:19.342Z,101581.53
2023-12-20T04:28:45.811Z,101577.19
2023-12-20T04:31:12.633Z,101580.88
2023-12-20T04:33:39.384Z,101596.38
2023-12-20T04:36:06.137Z,101589.59
2023-12-20T04:38:32.713Z,101587.56
2023-12-20T04:40:59.281Z,101592.25
2023-12-20T04:43:26.017Z,101578.16
2023-12-20T04:45:53.036Z,101579.56
2023-12-20T04:48:19.747Z,101570.75
2023-12-20T04:50:46.316Z,101583.88
2023-12-20T04:53:12.872Z,101581.97
2023-12-20T04:55:40.398Z,101578.03
2023-12-20T04:58:07.104Z,101569.88
2023-12-20T05:00:34.134Z,101560.63
2023-12-20T05:03:01.274Z,101569.81
2023-12-20T05:05:27.871Z,101558.34
2023-12-20T05:07:54.768Z,101566.94
2023-12-20T05:10:21.581Z,101566.50
2023-12-20T05:12:48.367Z,101578.78
2023-12-20T05:15:14.947Z,101568.75
2023-12-20T05:17:42.077Z,101573.81
2023-12-20T05:20:09.543Z,101563.00
2023-12-20T05:22:36.146Z,101567.84
2023-12-20T05:25:02.798Z,101581.97
2023-12-20T05:27:29.438Z,101581.56
2023-12-20T05:29:59.076Z,101576.00
2023-12-20T05:32:26.503Z,101572.75
2023-12-20T05:34:53.450Z,101576.59
2023-12-20T05:37:20.302Z,101565.97
2023-12-20T05:39:46.949Z,101573.72
2023-12-20T05:42:15.782Z,101573.28
2023-12-20T05:44:42.220Z,101570.63
2023-12-20T05:47:08.737Z,101573.06
2023-12-20T05:49:35.576Z,101566.34
2023-12-20T05:52:02.228Z,101571.22
2023-12-20T05:54:28.802Z,101569.38
2023-12-20T05:56:55.375Z,101583.88
2023-12-20T05:59:21.930Z,101570.56
2023-12-20T06:01:53.738Z,101575.06
2023-12-20T06:04:22.554Z,101567.91
2023-12-20T06:06:50.459Z,101571.59
2023-12-20T06:09:17.276Z,101564.66
2023-12-20T06:11:44.132Z,101569.53
2023-12-20T06:14:16.521Z,101563.78
2023-12-20T06:16:43.257Z,101561.69
2023-12-20T06:19:09.921Z,101551.06
2023-12-20T06:21:36.635Z,101563.56
2023-12-20T06:24:05.815Z,101563.91
2023-12-20T06:26:32.772Z,101548.56
2023-12-20T06:29:01.817Z,101556.53
2023-12-20T06:31:30.465Z,101557.72
2023-12-20T06:34:03.219Z,101542.38
2023-12-20T06:37:04.512Z,101558.34
2023-12-20T06:39:40.336Z,101552.41
2023-12-20T06:42:08.457Z,101547.88
2023-12-20T06:44:40.534Z,101556.03
2023-12-20T06:47:09.798Z,101557.22
2023-12-20T06:49:36.486Z,101548.00
2023-12-20T06:52:03.516Z,101544.16
2023-12-20T06:54:39.554Z,101541.50
2023-12-20T06:57:21.076Z,101537.81
2023-12-20T07:06:27.256Z,101539.00
2023-12-20T07:07:00.728Z,101531.38
2023-12-20T07:09:59.861Z,101535.50
2023-12-20T07:12:42.906Z,101546.97
2023-12-20T07:15:17.981Z,101544.31
2023-12-20T07:18:02.658Z,101535.31
2023-12-20T07:20:39.841Z,101542.19
2023-12-20T07:23:24.581Z,101527.00
2023-12-20T07:25:51.325Z,101520.88
2023-12-20T07:28:17.906Z,101537.66
2023-12-20T07:30:44.878Z,101536.19
2023-12-20T07:33:13.605Z,101529.00
2023-12-20T07:35:40.424Z,101527.16
2023-12-20T07:38:07.847Z,101525.06
2023-12-20T07:40:34.502Z,101521.84
2023-12-20T07:43:01.343Z,101518.94
2023-12-20T07:45:27.997Z,101517.31
2023-12-20T07:47:54.894Z,101539.44
2023-12-20T07:50:21.616Z,101534.91
2023-12-20T07:52:48.264Z,101543.25
2023-12-20T07:55:14.970Z,101543.84
2023-12-20T07:57:47.073Z,101544.47
2023-12-20T08:00:14.308Z,101543.19
2023-12-20T08:02:40.928Z,101556.88
2023-12-20T08:05:12.372Z,101558.13
2023-12-20T08:07:39.098Z,101558.50
2023-12-20T08:10:06.492Z,101572.19
2023-12-20T08:12:33.473Z,101566.03
2023-12-20T08:15:00.048Z,101570.94
2023-12-20T08:17:26.710Z,101567.22
2023-12-20T08:19:53.436Z,101565.59
2023-12-20T08:22:20.399Z,101548.00
2023-12-20T08:24:47.152Z,101561.91
2023-12-20T08:27:13.716Z,101559.84
2023-12-20T08:29:40.207Z,101546.53
2023-12-20T08:32:06.906Z,101557.97
2023-12-20T08:34:33.529Z,101549.53
2023-12-20T08:37:00.267Z,101555.66
2023-12-20T08:39:27.071Z,101546.66
2023-12-20T08:41:53.806Z,101536.00
2023-12-20T08:44:20.394Z,101540.06
2023-12-20T08:46:46.948Z,101549.91
2023-12-20T08:49:15.937Z,101546.44
2023-12-20T08:51:43.228Z,101543.53
2023-12-20T08:54:10.171Z,101543.31
2023-12-20T08:56:36.910Z,101547.03
2023-12-20T08:59:11.694Z,101542.50
2023-12-20T09:01:45.590Z,101540.88
2023-12-20T09:05:03.634Z,101553.38
2023-12-20T09:07:57.483Z,101540.88
2023-12-20T09:10:29.183Z,101541.69
2023-12-20T09:23:53.253Z,101540.63
2023-12-20T09:27:43.136Z,101538.56
2023-12-20T09:31:03.244Z,101531.75
2023-12-20T09:33:30.028Z,101547.31
2023-12-20T09:35:56.834Z,101532.69
2023-12-20T09:38:25.744Z,101528.09
2023-12-20T09:40:53.906Z,101539.25
2023-12-20T09:43:22.160Z,101543.31
2023-12-20T09:45:49.605Z,101540.41
2023-12-20T09:48:19.650Z,101540.19
2023-12-20T09:50:50.809Z,101540.78
2023-12-20T09:53:20.840Z,101539.53
2023-12-20T09:55:47.691Z,101539.19
2023-12-20T09:58:14.420Z,101541.16
2023-12-20T10:00:41.180Z,101534.56
2023-12-20T10:03:09.036Z,101546.63
2023-12-20T10:05:36.128Z,101548.38
2023-12-20T10:08:03.554Z,101561.03
2023-12-20T10:10:38.419Z,101555.47
2023-12-20T10:13:13.784Z,101564.06
2023-12-20T10:15:42.334Z,101558.50
2023-12-20T10:18:10.798Z,101557.78
2023-12-20T10:20:38.863Z,101555.38
2023-12-20T10:23:05.745Z,101552.91
2023-12-20T10:25:33.311Z,101555.13
2023-12-20T10:28:22.420Z,101549.56
2023-12-20T10:30:51.370Z,101546.22
2023-12-20T10:33:27.138Z,101541.22
2023-12-20T10:36:07.878Z,101545.28
2023-12-20T10:39:13.997Z,101538.66
2023-12-20T10:48:14.402Z,101531.13
2023-12-20T10:54:13.758Z,101516.16
2023-12-20T10:57:07.840Z,101519.66
2023-12-20T11:00:12.693Z,101526.97
2023-12-20T11:02:55.667Z,101519.31
2023-12-20T11:06:09.335Z,101518.97
2023-12-20T11:09:14.872Z,101517.22
2023-12-20T11:12:06.340Z,101510.34
2023-12-20T11:15:11.190Z,101510.34
2023-12-20T11:21:00.827Z,101517.38
2023-12-20T11:23:50.325Z,101505.06
2023-12-20T11:30:21.900Z,101485.16
2023-12-20T11:33:00.002Z,101492.22
2023-12-20T11:35:50.050Z,101490.44
2023-12-20T11:38:42.584Z,101484.25
2023-12-20T11:41:40.626Z,101490.59
2023-12-20T11:44:15.091Z,101481.19
2023-12-20T11:46:45.275Z,101487.25
2023-12-20T11:49:12.310Z,101472.03
2023-12-20T11:51:43.297Z,101457.88
2023-12-20T11:54:10.382Z,101466.69
2023-12-20T11:56:37.916Z,101456.84
2023-12-20T11:59:13.400Z,101451.25
2023-12-20T12:01:51.959Z,101454.25
2023-12-20T12:04:21.495Z,101454.03
2023-12-20T12:06:48.382Z,101468.09
2023-12-20T12:09:15.175Z,101461.94
2023-12-20T12:11:45.026Z,101469.72
2023-12-20T12:14:18.308Z,101468.09
2023-12-20T12:16:48.827Z,101472.63
2023-12-20T12:19:22.598Z,101469.16
2023-12-20T12:21:49.253Z,101471.56
2023-12-20T12:24:16.187Z,101470.53
2023-12-20T12:26:42.921Z,101467.59
2023-12-20T12:29:09.440Z,101461.78
2023-12-20T12:31:36.186Z,101446.31
2023-12-20T12:34:02.976Z,101442.84
2023-12-20T12:36:31.497Z,101442.03
2023-12-20T12:38:59.257Z,101444.97
2023-12-20T12:41:25.868Z,101444.97
2023-12-20T12:43:52.368Z,101435.91
2023-12-20T12:46:19.320Z,101431.81
2023-12-20T12:48:47.367Z,101424.84
2023-12-20T12:51:15.272Z,101425.91
2023-12-20T12:53:41.985Z,101425.69
2023-12-20T12:56:09.182Z,101440.88
2023-12-20T12:58:36.071Z,101430.44
2023-12-20T13:01:02.767Z,101417.09
2023-12-20T13:03:29.413Z,101420.00
2023-12-20T13:05:56.429Z,101418.38
2023-12-20T13:08:23.161Z,101407.91
2023-12-20T13:10:49.940Z,101400.97
2023-12-20T13:13:16.439Z,101393.19
2023-12-20T13:15:43.007Z,101402.25
2023-12-20T13:18:09.668Z,101399.00
2023-12-20T13:20:36.449Z,101394.13
2023-12-20T13:23:02.894Z,101384.53
2023-12-20T13:25:29.683Z,101371.41
2023-12-20T13:27:56.333Z,101375.94
2023-12-20T13:30:23.088Z,101369.78
2023-12-20T13:32:50.493Z,101368.97
2023-12-20T13:35:17.267Z,101366.53
2023-12-20T13:37:46.023Z,101356.88
2023-12-20T13:40:13.612Z,101350.75
2023-12-20T13:42:41.100Z,101343.53
2023-12-20T13:45:08.842Z,101339.81
2023-12-20T13:47:36.346Z,101339.81
2023-12-20T13:50:04.283Z,101343.31
2023-12-20T13:52:31.231Z,101339.59
2023-12-20T13:54:57.870Z,101334.25
2023-12-20T13:57:37.579Z,101344.69
2023-12-20T14:00:16.235Z,101342.84
2023-12-20T14:02:43.621Z,101347.94
2023-12-20T14:05:11.491Z,101341.78
2023-12-20T14:07:38.315Z,101345.50
2023-12-20T14:10:05.467Z,101343.63
2023-12-20T14:12:33.509Z,101352.94
2023-12-20T14:15:00.070Z,101341.22
2023-12-20T14:17:26.661Z,101340.88
2023-12-20T14:19:53.410Z,101348.09
2023-12-20T14:22:20.244Z,101355.53
2023-12-20T14:24:47.091Z,101348.56
2023-12-20T14:27:14.433Z,101351.69
2023-12-20T14:29:45.345Z,101358.34
2023-12-20T14:32:11.835Z,101357.28
2023-12-20T14:34:39.402Z,101349.03
2023-12-20T14:37:06.404Z,101342.09
2023-12-20T14:39:33.373Z,101331.41
2023-12-20T14:41:59.998Z,101329.06
2023-12-20T14:44:29.425Z,101331.75
2023-12-20T14:46:55.981Z,101346.94
2023-12-20T14:49:24.830Z,101331.97
2023-12-20T14:51:51.458Z,101347.44
2023-12-20T14:54:22.696Z,101327.91
2023-12-20T14:56:51.578Z,101330.84
2023-12-20T14:59:18.294Z,101339.91
2023-12-20T15:01:45.936Z,101332.47
2023-12-20T15:04:12.642Z,101338.59
2023-12-20T15:06:39.272Z,101349.53
2023-12-20T15:09:08.716Z,101334.56
2023-12-20T15:11:36.420Z,101327.34
2023-12-20T15:14:03.870Z,101334.78
2023-12-20T15:16:30.571Z,101342.78
2023-12-20T15:18:57.854Z,101339.31
2023-12-20T15:21:33.075Z,101336.06
2023-12-20T15:24:06.890Z,101335.75
2023-12-20T15:26:34.577Z,101330.66
2023-12-20T15:29:05.302Z,101321.81
2023-12-20T15:31:33.844Z,101324.75
2023-12-20T15:34:00.777Z,101326.38
2023-12-20T15:36:27.388Z,101327.41
2023-12-20T15:38:53.894Z,101331.34
2023-12-20T15:41:21.529Z,101326.53
2023-12-20T15:43:48.498Z,101312.00
2023-12-20T15:46:15.801Z,101310.41
2023-12-20T15:48:42.739Z,101299.16
2023-12-20T15:51:10.596Z,101301.00
2023-12-20T15:53:37.704Z,101296.72
2023-12-20T15:56:05.714Z,101293.94
2023-12-20T15:58:32.298Z,101319.84
2023-12-20T16:00:58.971Z,101321.09
2023-12-20T16:03:26.342Z,101305.09
2023-12-20T16:05:55.508Z,101284.25
2023-12-20T16:08:22.376Z,101278.31
2023-12-20T16:10:48.971Z,101283.88
2023-12-20T16:13:15.514Z,101275.09
2023-12-20T16:15:42.649Z,101271.84
2023-12-20T16:18:12.138Z,101272.09
2023-12-20T16:20:39.513Z,101263.25
2023-12-20T16:23:06.612Z,101255.25
2023-12-20T16:25:33.431Z,101251.78
2023-12-20T16:27:59.962Z,101247.50
2023-12-20T16:30:26.493Z,101232.88
2023-12-20T16:32:53.004Z,101225.09
2023-12-20T16:35:19.608Z,101227.53
2023-12-20T16:37:46.331Z,101216.06
2023-12-20T16:40:13.152Z,101211.53
2023-12-20T16:42:39.816Z,101207.00
2023-12-20T16:45:07.755Z,101215.00
2023-12-20T16:47:34.549Z,101212.34
2023-12-20T16:50:03.350Z,101203.75
2023-12-20T16:52:29.992Z,101203.75
2023-12-20T16:54:56.502Z,101195.97
2023-12-20T16:57:23.040Z,101189.84
2023-12-20T16:59:49.482Z,101192.78
2023-12-20T17:02:15.978Z,101189.53
2023-12-20T17:04:42.638Z,101187.34
2023-12-20T17:07:09.346Z,101177.72
2023-12-20T17:09:35.831Z,101178.75
2023-12-20T17:12:02.337Z,101170.19
2023-12-20T17:14:29.037Z,101193.38
2023-12-20T17:16:55.470Z,101170.19
2023-12-20T17:19:24.840Z,101157.88
2023-12-20T17:21:54.328Z,101161.59
2023-12-20T17:24:20.814Z,101155.22
2023-12-20T17:26:47.360Z,101159.75
2023-12-20T17:29:13.890Z,101150.72
2023-12-20T17:31:42.693Z,101148.84
2023-12-20T17:34:12.590Z,101149.16
2023-12-20T17:36:40.989Z,101144.66
2023-12-20T17:39:07.497Z,101141.16
2023-12-20T17:41:35.095Z,101138.25
2023-12-20T17:44:01.540Z,101145.22
2023-12-20T17:46:28.483Z,101144.16
2023-12-20T17:48:55.070Z,101142.06
2023-12-20T17:51:22.566Z,101128.47
2023-12-20T17:53:51.004Z,101123.16
2023-12-20T17:56:18.300Z,101124.78
2023-12-20T17:58:45.098Z,101128.22
2023-12-20T18:01:12.389Z,101122.09
2023-12-20T18:03:38.934Z,101120.22
2023-12-20T18:06:05.761Z,101114.88
2023-12-20T18:08:32.458Z,101114.88
2023-12-20T18:10:58.968Z,101105.84
2023-12-20T18:13:25.487Z,101102.13
2023-12-20T18:15:52.157Z,101098.09
2023-12-20T18:18:18.815Z,101102.59
2023-12-20T18:20:45.604Z,101102.59
2023-12-20T18:23:13.699Z,101100.97
2023-12-20T18:25:40.295Z,101090.31
2023-12-20T18:28:06.852Z,101091.13
2023-12-20T18:30:33.459Z,101084.97
2023-12-20T18:33:00.121Z,101081.25
2023-12-20T18:35:27.535Z,101089.25
2023-12-20T18:37:54.144Z,101075.91
2023-12-20T18:40:20.875Z,101074.06
2023-12-20T18:42:47.455Z,101069.78
2023-12-20T18:45:14.365Z,101063.41
2023-12-20T18:47:41.091Z,101051.69
2023-12-20T18:50:10.230Z,101042.84
2023-12-20T18:52:36.963Z,101040.19
2023-12-20T18:55:03.696Z,101039.13
2023-12-20T18:57:30.459Z,101042.63
2023-12-20T18:59:57.095Z,101044.25
2023-12-20T19:02:23.647Z,101049.59
2023-12-20T19:04:50.232Z,101042.94
2023-12-20T19:07:18.429Z,101028.28
2023-12-20T19:09:45.010Z,101017.41
2023-12-20T19:12:11.676Z,101017.41
2023-12-20T19:14:38.238Z,101031.28
2023-12-20T19:17:05.482Z,101015.25
2023-12-20T19:19:32.155Z,101027.91
2023-12-20T19:21:58.891Z,101026.59
2023-12-20T19:24:25.375Z,101015.09
2023-12-20T19:26:51.937Z,101006.84
2023-12-20T19:29:18.427Z,101009.53
2023-12-20T19:31:47.892Z,101007.66
2023-12-20T19:34:15.123Z,100995.13
2023-12-20T19:36:41.836Z,100993.25
2023-12-20T19:39:08.277Z,100998.38
2023-12-20T19:41:34.751Z,101005.31
2023-12-20T19:44:02.336Z,100998.91
2023-12-20T19:46:28.932Z,100987.16
2023-12-20T19:48:55.862Z,100996.78
2023-12-20T19:51:22.450Z,100993.91
2023-12-20T19:53:48.931Z,100985.88
2023-12-20T19:56:15.684Z,100978.69
2023-12-20T19:58:42.197Z,100978.94
2023-12-20T20:01:08.837Z,100980.78
2023-12-20T20:03:35.487Z,100970.94
2023-12-20T20:06:02.295Z,100957.31
2023-12-20T20:08:28.961Z,100976.00
2023-12-20T20:10:55.549Z,100974.94
2023-12-20T20:13:22.071Z,100973.34
2023-12-20T20:15:49.110Z,100980.03
2023-12-20T20:18:16.330Z,100969.34
2023-12-20T20:20:42.860Z,100964.00
2023-12-20T20:23:09.584Z,100978.97
2023-12-20T20:25:36.162Z,100974.47
2023-12-20T20:28:02.923Z,100971.78
2023-12-20T20:30:29.560Z,100978.75
2023-12-20T20:32:56.290Z,100973.41
2023-12-20T20:35:23.113Z,100978.50
2023-12-20T20:37:50.475Z,100983.59
2023-12-20T20:40:19.943Z,100985.19
2023-12-20T20:42:47.162Z,100964.66
2023-12-20T20:45:15.050Z,100947.59
2023-12-20T20:47:42.745Z,100953.72
2023-12-20T20:50:10.774Z,100944.66
2023-12-20T20:52:37.886Z,100943.88
2023-12-20T20:55:04.937Z,100941.44
2023-12-20T20:57:31.758Z,100944.66
2023-12-20T20:59:58.340Z,100952.94
2023-12-20T21:02:26.191Z,100940.13
2023-12-20T21:04:52.823Z,100938.53
2023-12-20T21:07:19.828Z,100935.84
2023-12-20T21:09:48.763Z,100920.63
2023-12-20T21:12:15.436Z,100919.56
2023-12-20T21:14:42.091Z,100920.94
2023-12-20T21:17:09.139Z,100912.13
2023-12-20T21:19:35.718Z,100911.06
2023-12-20T21:22:03.371Z,100900.94
2023-12-20T21:24:30.336Z,100894.56
2023-12-20T21:26:56.881Z,100911.09
2023-12-20T21:29:23.469Z,100911.66
2023-12-20T21:31:50.281Z,100910.63
2023-12-20T21:34:16.962Z,100899.94
2023-12-20T21:36:44.006Z,100881.81
2023-12-20T21:39:11.454Z,100884.47
2023-12-20T21:41:38.120Z,100889.81
2023-12-20T21:44:04.824Z,100900.22
2023-12-20T21:46:31.500Z,100879.44
2023-12-20T21:48:58.072Z,100879.19
2023-12-20T21:51:24.684Z,100868.25
2023-12-20T21:53:51.354Z,100872.81
2023-12-20T21:56:17.974Z,100868.03
2023-12-20T21:58:45.725Z,100863.06
2023-12-20T22:01:13.196Z,100884.97
2023-12-20T22:03:41.742Z,100876.47
2023-12-20T22:06:09.047Z,100899.75
2023-12-20T22:08:35.527Z,100892.84
2023-12-20T22:11:02.413Z,100883.22
2023-12-20T22:13:31.804Z,100879.50
2023-12-20T22:15:58.822Z,100873.34
2023-12-20T22:18:25.499Z,100886.94
2023-12-20T22:20:52.265Z,100876.50
2023-12-20T22:23:18.917Z,100878.69
2023-12-20T22:25:45.575Z,100876.31
2023-12-20T22:28:12.323Z,100874.50
2023-12-20T22:30:39.053Z,100875.88
2023-12-20T22:33:05.632Z,100869.44
2023-12-20T22:35:32.256Z,100853.13
2023-12-20T22:38:00.404Z,100855.53
2023-12-20T22:40:27.382Z,100849.16
2023-12-20T22:42:54.573Z,100846.47
2023-12-20T22:45:21.196Z,100853.13
2023-12-20T22:47:48.196Z,100854.50
2023-12-20T22:50:15.101Z,100845.16
2023-12-20T22:52:41.691Z,100833.63
2023-12-20T22:55:08.854Z,100842.75
2023-12-20T22:57:35.887Z,100847.84
2023-12-20T23:00:03.351Z,100842.25
2023-12-20T23:02:29.870Z,100839.06
2023-12-20T23:04:56.495Z,100844.44
2023-12-20T23:07:23.111Z,100840.16
2023-12-20T23:09:49.770Z,100828.91
2023-12-20T23:12:16.271Z,100831.84
2023-12-20T23:14:42.712Z,100828.13
2023-12-20T23:17:09.183Z,100831.06
2023-12-20T23:19:35.892Z,100832.34
2023-12-20T23:22:02.633Z,100821.38
2023-12-20T23:24:29.173Z,100818.66
2023-12-20T23:26:55.935Z,100816.81
2023-12-20T23:29:22.412Z,100807.44
2023-12-20T23:31:49.014Z,100804.25
2023-12-20T23:34:16.964Z,100794.38
2023-12-20T23:36:44.883Z,100786.59
2023-12-20T23:39:11.896Z,100778.06
2023-12-20T23:41:38.374Z,100779.66
2023-12-20T23:44:05.127Z,100764.94
2023-12-20T23:46:31.734Z,100772.16
2023-12-20T23:48:58.790Z,100774.81
2023-12-20T23:51:25.352Z,100759.03
2023-12-20T23:53:51.828Z,100762.53
2023-12-20T23:56:27.418Z,100749.16
2023-12-20T23:58:58.020Z,100741.69
